Metar Aviation Weather Data     LHBP Budapest Liszt Ferenc International Airport
Temperature
13°C Temperature
6°C Dewpoint
63% Humidity



Wind
3 KM/H
2 MPH
1 M/S
2 KTS



150°
DDK
Current Conditions

Clear Clear
Pressure 1034.92 (hPa) - 30.56 (inHg)
Visibility 6.2 (mile) - 10 (km)
Repülőtér
Airport-code LHBP

Location: Budapest Liszt Ferenc International Airport
Távolság: 14 (km)

Metar:
LHBP 241630Z 15002KT CAVOK 13/06 Q1035 NOSIG

Idő: 2021-02-24 17:30 CET